sensor_id;sensor_type;location;lat;lon;timestamp;pressure;altitude;pressure_sealevel;temperature;humidity
44140;BME280;29803;51.048;4.686;2023-03-13T00:00:24;100303.47;;;10.30;100.00
44140;BME280;29803;51.048;4.686;2023-03-13T00:02:54;100297.00;;;10.24;100.00
44140;BME280;29803;51.048;4.686;2023-03-13T00:05:25;100282.56;;;10.25;100.00
44140;BME280;29803;51.048;4.686;2023-03-13T00:07:55;100280.03;;;10.24;100.00
44140;BME280;29803;51.048;4.686;2023-03-13T00:10:25;100276.03;;;10.20;100.00
44140;BME280;29803;51.048;4.686;2023-03-13T00:12:56;100275.38;;;10.18;100.00
44140;BME280;29803;51.048;4.686;2023-03-13T00:15:26;100277.22;;;10.17;100.00
44140;BME280;29803;51.048;4.686;2023-03-13T00:17:57;100268.97;;;10.27;100.00
44140;BME280;29803;51.048;4.686;2023-03-13T00:20:28;100264.63;;;10.26;100.00
44140;BME280;29803;51.048;4.686;2023-03-13T00:22:59;100260.94;;;10.27;100.00
44140;BME280;29803;51.048;4.686;2023-03-13T00:25:29;100261.56;;;10.29;100.00
44140;BME280;29803;51.048;4.686;2023-03-13T00:28:00;100251.16;;;10.34;100.00
44140;BME280;29803;51.048;4.686;2023-03-13T00:30:30;100243.59;;;10.37;100.00
44140;BME280;29803;51.048;4.686;2023-03-13T00:33:01;100233.16;;;10.43;100.00
44140;BME280;29803;51.048;4.686;2023-03-13T00:35:31;100223.75;;;10.47;100.00
44140;BME280;29803;51.048;4.686;2023-03-13T00:38:02;100217.34;;;10.48;100.00
44140;BME280;29803;51.048;4.686;2023-03-13T00:40:32;100209.78;;;10.51;100.00
44140;BME280;29803;51.048;4.686;2023-03-13T00:43:02;100212.56;;;10.58;100.00
44140;BME280;29803;51.048;4.686;2023-03-13T00:45:33;100202.31;;;10.61;100.00
44140;BME280;29803;51.048;4.686;2023-03-13T00:48:03;100208.31;;;10.63;100.00
44140;BME280;29803;51.048;4.686;2023-03-13T00:50:34;100217.59;;;10.61;100.00
44140;BME280;29803;51.048;4.686;2023-03-13T00:53:04;100209.16;;;10.64;100.00
44140;BME280;29803;51.048;4.686;2023-03-13T00:55:35;100192.63;;;10.60;100.00
44140;BME280;29803;51.048;4.686;2023-03-13T00:58:05;100194.19;;;10.55;100.00
44140;BME280;29803;51.048;4.686;2023-03-13T01:00:36;100197.84;;;10.54;100.00
44140;BME280;29803;51.048;4.686;2023-03-13T01:03:06;100195.16;;;10.54;100.00
44140;BME280;29803;51.048;4.686;2023-03-13T01:05:37;100181.59;;;10.55;100.00
44140;BME280;29803;51.048;4.686;2023-03-13T01:08:07;100181.41;;;10.57;100.00
44140;BME280;29803;51.048;4.686;2023-03-13T01:10:38;100176.03;;;10.57;100.00
44140;BME280;29803;51.048;4.686;2023-03-13T01:13:08;100175.84;;;10.58;100.00
44140;BME280;29803;51.048;4.686;2023-03-13T01:15:38;100178.81;;;10.63;100.00
44140;BME280;29803;51.048;4.686;2023-03-13T01:18:09;100171.78;;;10.62;100.00
44140;BME280;29803;51.048;4.686;2023-03-13T01:20:40;100156.16;;;10.66;100.00
44140;BME280;29803;51.048;4.686;2023-03-13T01:23:10;100173.94;;;10.67;100.00
44140;BME280;29803;51.048;4.686;2023-03-13T01:25:41;100155.63;;;10.71;100.00
44140;BME280;29803;51.048;4.686;2023-03-13T01:28:11;100156.75;;;10.76;100.00
44140;BME280;29803;51.048;4.686;2023-03-13T01:30:42;100168.28;;;10.77;100.00
44140;BME280;29803;51.048;4.686;2023-03-13T01:33:12;100157.84;;;10.82;100.00
44140;BME280;29803;51.048;4.686;2023-03-13T01:35:43;100152.75;;;10.87;100.00
44140;BME280;29803;51.048;4.686;2023-03-13T01:38:13;100144.06;;;10.85;100.00
44140;BME280;29803;51.048;4.686;2023-03-13T01:40:46;100150.91;;;10.87;100.00
44140;BME280;29803;51.048;4.686;2023-03-13T01:43:33;100140.09;;;10.96;100.00
44140;BME280;29803;51.048;4.686;2023-03-13T01:46:23;100132.47;;;10.99;100.00
44140;BME280;29803;51.048;4.686;2023-03-13T01:48:59;100127.78;;;11.01;100.00
44140;BME280;29803;51.048;4.686;2023-03-13T01:51:36;100110.44;;;11.04;100.00
44140;BME280;29803;51.048;4.686;2023-03-13T01:54:14;100108.69;;;11.11;100.00
44140;BME280;29803;51.048;4.686;2023-03-13T01:59:39;100077.31;;;11.11;100.00
44140;BME280;29803;51.048;4.686;2023-03-13T02:02:12;100064.91;;;11.10;100.00
44140;BME280;29803;51.048;4.686;2023-03-13T02:04:48;100059.72;;;11.09;100.00
44140;BME280;29803;51.048;4.686;2023-03-13T02:07:24;100071.69;;;11.06;100.00
44140;BME280;29803;51.048;4.686;2023-03-13T02:09:58;100065.75;;;11.11;100.00
44140;BME280;29803;51.048;4.686;2023-03-13T02:12:33;100068.22;;;11.12;100.00
44140;BME280;29803;51.048;4.686;2023-03-13T02:15:08;100065.19;;;11.15;100.00
44140;BME280;29803;51.048;4.686;2023-03-13T02:17:40;100058.97;;;11.15;100.00
44140;BME280;29803;51.048;4.686;2023-03-13T02:20:13;100045.72;;;11.13;100.00
44140;BME280;29803;51.048;4.686;2023-03-13T02:23:06;100057.19;;;11.22;100.00
44140;BME280;29803;51.048;4.686;2023-03-13T02:25:42;100048.31;;;11.22;100.00
44140;BME280;29803;51.048;4.686;2023-03-13T02:28:18;100043.56;;;11.24;100.00
44140;BME280;29803;51.048;4.686;2023-03-13T02:30:53;100038.28;;;11.30;100.00
44140;BME280;29803;51.048;4.686;2023-03-13T02:33:28;100041.66;;;11.39;100.00
44140;BME280;29803;51.048;4.686;2023-03-13T02:36:00;100042.78;;;11.45;100.00
44140;BME280;29803;51.048;4.686;2023-03-13T02:38:35;100029.34;;;11.45;100.00
44140;BME280;29803;51.048;4.686;2023-03-13T02:41:07;100030.44;;;11.50;100.00
44140;BME280;29803;51.048;4.686;2023-03-13T02:43:38;100029.66;;;11.56;100.00
44140;BME280;29803;51.048;4.686;2023-03-13T02:46:12;100026.41;;;11.61;100.00
44140;BME280;29803;51.048;4.686;2023-03-13T02:48:45;100029.91;;;11.61;100.00
44140;BME280;29803;51.048;4.686;2023-03-13T02:53:53;100017.59;;;11.74;100.00
44140;BME280;29803;51.048;4.686;2023-03-13T02:56:26;100024.53;;;11.83;100.00
44140;BME280;29803;51.048;4.686;2023-03-13T02:58:58;100031.44;;;11.92;100.00
44140;BME280;29803;51.048;4.686;2023-03-13T03:01:28;100037.50;;;12.01;100.00
44140;BME280;29803;51.048;4.686;2023-03-13T03:03:59;100037.94;;;12.04;100.00
44140;BME280;29803;51.048;4.686;2023-03-13T03:06:29;100038.00;;;12.11;100.00
44140;BME280;29803;51.048;4.686;2023-03-13T03:09:00;100031.25;;;12.22;100.00
44140;BME280;29803;51.048;4.686;2023-03-13T03:11:31;100041.41;;;12.26;100.00
44140;BME280;29803;51.048;4.686;2023-03-13T03:14:02;100035.84;;;12.28;100.00
44140;BME280;29803;51.048;4.686;2023-03-13T03:16:32;100008.97;;;12.34;100.00
44140;BME280;29803;51.048;4.686;2023-03-13T03:19:04;99986.44;;;12.35;100.00
44140;BME280;29803;51.048;4.686;2023-03-13T03:21:35;100000.97;;;12.41;100.00
44140;BME280;29803;51.048;4.686;2023-03-13T03:24:06;99991.63;;;12.43;100.00
44140;BME280;29803;51.048;4.686;2023-03-13T03:26:37;99991.06;;;12.48;100.00
44140;BME280;29803;51.048;4.686;2023-03-13T03:29:07;100003.66;;;12.48;100.00
44140;BME280;29803;51.048;4.686;2023-03-13T03:31:40;99980.94;;;12.50;100.00
44140;BME280;29803;51.048;4.686;2023-03-13T03:34:10;99979.31;;;12.56;100.00
44140;BME280;29803;51.048;4.686;2023-03-13T03:36:41;99975.38;;;12.58;100.00
44140;BME280;29803;51.048;4.686;2023-03-13T03:39:11;99986.13;;;12.58;100.00
44140;BME280;29803;51.048;4.686;2023-03-13T03:41:42;99980.38;;;12.61;100.00
44140;BME280;29803;51.048;4.686;2023-03-13T03:44:12;99988.00;;;12.64;100.00
44140;BME280;29803;51.048;4.686;2023-03-13T03:46:43;99977.91;;;12.66;100.00
44140;BME280;29803;51.048;4.686;2023-03-13T03:49:13;99977.47;;;12.69;100.00
44140;BME280;29803;51.048;4.686;2023-03-13T03:51:43;99991.56;;;12.72;100.00
44140;BME280;29803;51.048;4.686;2023-03-13T03:54:14;99982.06;;;12.76;100.00
44140;BME280;29803;51.048;4.686;2023-03-13T03:56:44;99977.69;;;12.75;100.00
44140;BME280;29803;51.048;4.686;2023-03-13T03:59:15;99978.56;;;12.75;100.00
44140;BME280;29803;51.048;4.686;2023-03-13T04:01:45;99981.66;;;12.79;100.00
44140;BME280;29803;51.048;4.686;2023-03-13T04:04:16;99978.78;;;12.80;100.00
44140;BME280;29803;51.048;4.686;2023-03-13T04:06:46;99982.31;;;12.81;100.00
44140;BME280;29803;51.048;4.686;2023-03-13T04:09:17;99961.78;;;12.80;100.00
44140;BME280;29803;51.048;4.686;2023-03-13T04:11:47;99957.66;;;12.77;100.00
44140;BME280;29803;51.048;4.686;2023-03-13T04:14:17;99941.50;;;12.77;100.00
44140;BME280;29803;51.048;4.686;2023-03-13T04:16:48;99954.94;;;12.77;100.00
44140;BME280;29803;51.048;4.686;2023-03-13T04:19:18;99948.53;;;12.78;100.00
44140;BME280;29803;51.048;4.686;2023-03-13T04:21:49;99941.09;;;12.80;100.00
44140;BME280;29803;51.048;4.686;2023-03-13T04:24:19;99938.59;;;12.79;100.00
44140;BME280;29803;51.048;4.686;2023-03-13T04:26:50;99946.28;;;12.82;100.00
44140;BME280;29803;51.048;4.686;2023-03-13T04:29:20;99949.81;;;12.89;100.00
44140;BME280;29803;51.048;4.686;2023-03-13T04:31:51;99949.63;;;12.90;100.00
44140;BME280;29803;51.048;4.686;2023-03-13T04:34:21;99948.38;;;12.93;100.00
44140;BME280;29803;51.048;4.686;2023-03-13T04:36:51;99967.81;;;12.88;100.00
44140;BME280;29803;51.048;4.686;2023-03-13T04:39:22;99969.50;;;12.96;100.00
44140;BME280;29803;51.048;4.686;2023-03-13T04:41:54;99964.72;;;12.91;100.00
44140;BME280;29803;51.048;4.686;2023-03-13T04:44:25;99963.91;;;12.91;100.00
44140;BME280;29803;51.048;4.686;2023-03-13T04:46:55;99960.56;;;12.89;100.00
44140;BME280;29803;51.048;4.686;2023-03-13T04:49:26;99960.19;;;12.92;100.00
44140;BME280;29803;51.048;4.686;2023-03-13T04:51:56;99936.78;;;12.92;100.00
44140;BME280;29803;51.048;4.686;2023-03-13T04:54:27;99958.53;;;12.91;100.00
44140;BME280;29803;51.048;4.686;2023-03-13T04:56:58;99956.00;;;12.89;100.00
44140;BME280;29803;51.048;4.686;2023-03-13T04:59:28;99963.47;;;12.87;100.00
44140;BME280;29803;51.048;4.686;2023-03-13T05:01:59;99954.34;;;12.88;100.00
44140;BME280;29803;51.048;4.686;2023-03-13T05:04:29;99958.31;;;12.99;100.00
44140;BME280;29803;51.048;4.686;2023-03-13T05:07:00;99953.56;;;13.01;100.00
44140;BME280;29803;51.048;4.686;2023-03-13T05:09:30;99950.66;;;13.03;100.00
44140;BME280;29803;51.048;4.686;2023-03-13T05:12:00;99935.75;;;13.00;100.00
44140;BME280;29803;51.048;4.686;2023-03-13T05:14:31;99935.75;;;13.00;100.00
44140;BME280;29803;51.048;4.686;2023-03-13T05:17:01;99934.50;;;13.03;100.00
44140;BME280;29803;51.048;4.686;2023-03-13T05:19:32;99928.69;;;12.99;100.00
44140;BME280;29803;51.048;4.686;2023-03-13T05:22:02;99935.13;;;12.98;100.00
44140;BME280;29803;51.048;4.686;2023-03-13T05:24:33;99922.53;;;13.05;100.00
44140;BME280;29803;51.048;4.686;2023-03-13T05:27:03;99917.09;;;12.99;100.00
44140;BME280;29803;51.048;4.686;2023-03-13T05:29:34;99919.59;;;13.00;100.00
44140;BME280;29803;51.048;4.686;2023-03-13T05:32:05;99904.47;;;12.99;100.00
44140;BME280;29803;51.048;4.686;2023-03-13T05:34:35;99911.50;;;12.93;100.00
44140;BME280;29803;51.048;4.686;2023-03-13T05:37:06;99912.16;;;12.95;100.00
44140;BME280;29803;51.048;4.686;2023-03-13T05:39:36;99915.44;;;12.98;100.00
44140;BME280;29803;51.048;4.686;2023-03-13T05:42:06;99907.81;;;13.01;100.00
44140;BME280;29803;51.048;4.686;2023-03-13T05:44:37;99886.47;;;13.06;100.00
44140;BME280;29803;51.048;4.686;2023-03-13T05:47:07;99894.34;;;13.08;100.00
44140;BME280;29803;51.048;4.686;2023-03-13T05:49:38;99898.47;;;13.04;100.00
44140;BME280;29803;51.048;4.686;2023-03-13T05:52:09;99905.31;;;13.06;100.00
44140;BME280;29803;51.048;4.686;2023-03-13T05:54:39;99902.81;;;13.05;100.00
44140;BME280;29803;51.048;4.686;2023-03-13T05:57:10;99906.56;;;13.04;100.00
44140;BME280;29803;51.048;4.686;2023-03-13T05:59:40;99901.38;;;13.02;100.00
44140;BME280;29803;51.048;4.686;2023-03-13T06:02:11;99893.53;;;13.01;100.00
44140;BME280;29803;51.048;4.686;2023-03-13T06:04:41;99897.22;;;13.00;100.00
44140;BME280;29803;51.048;4.686;2023-03-13T06:07:12;99889.78;;;13.02;100.00
44140;BME280;29803;51.048;4.686;2023-03-13T06:09:42;99873.19;;;13.05;100.00
44140;BME280;29803;51.048;4.686;2023-03-13T06:12:13;99878.19;;;13.08;100.00
44140;BME280;29803;51.048;4.686;2023-03-13T06:14:43;99889.78;;;13.08;100.00
44140;BME280;29803;51.048;4.686;2023-03-13T06:17:14;99877.16;;;13.09;100.00
44140;BME280;29803;51.048;4.686;2023-03-13T06:19:45;99877.56;;;13.12;100.00
44140;BME280;29803;51.048;4.686;2023-03-13T06:22:16;99865.16;;;13.11;100.00
44140;BME280;29803;51.048;4.686;2023-03-13T06:24:46;99867.41;;;13.14;100.00
44140;BME280;29803;51.048;4.686;2023-03-13T06:27:18;99879.22;;;13.13;100.00
44140;BME280;29803;51.048;4.686;2023-03-13T06:29:49;99865.75;;;13.13;100.00
44140;BME280;29803;51.048;4.686;2023-03-13T06:32:19;99881.50;;;13.16;100.00
44140;BME280;29803;51.048;4.686;2023-03-13T06:34:50;99875.69;;;13.13;100.00
44140;BME280;29803;51.048;4.686;2023-03-13T06:37:21;99867.63;;;13.13;100.00
44140;BME280;29803;51.048;4.686;2023-03-13T06:39:52;99880.69;;;13.16;100.00
44140;BME280;29803;51.048;4.686;2023-03-13T06:42:22;99886.47;;;13.19;100.00
44140;BME280;29803;51.048;4.686;2023-03-13T06:44:52;99884.38;;;13.15;100.00
44140;BME280;29803;51.048;4.686;2023-03-13T06:47:23;99889.63;;;13.23;100.00
44140;BME280;29803;51.048;4.686;2023-03-13T06:49:53;99886.72;;;13.25;100.00
44140;BME280;29803;51.048;4.686;2023-03-13T06:52:24;99869.72;;;13.24;100.00
44140;BME280;29803;51.048;4.686;2023-03-13T06:54:54;99874.94;;;13.26;100.00
44140;BME280;29803;51.048;4.686;2023-03-13T06:57:25;99880.91;;;13.28;100.00
44140;BME280;29803;51.048;4.686;2023-03-13T06:59:56;99872.00;;;13.27;100.00
44140;BME280;29803;51.048;4.686;2023-03-13T07:02:26;99884.03;;;13.31;100.00
44140;BME280;29803;51.048;4.686;2023-03-13T07:04:57;99869.31;;;13.27;100.00
44140;BME280;29803;51.048;4.686;2023-03-13T07:07:27;99900.59;;;13.28;100.00
44140;BME280;29803;51.048;4.686;2023-03-13T07:09:59;99882.78;;;13.34;100.00
44140;BME280;29803;51.048;4.686;2023-03-13T07:12:30;99860.81;;;13.37;100.00
44140;BME280;29803;51.048;4.686;2023-03-13T07:15:00;99879.88;;;13.35;100.00
44140;BME280;29803;51.048;4.686;2023-03-13T07:17:30;99886.94;;;13.36;100.00
44140;BME280;29803;51.048;4.686;2023-03-13T07:20:03;99886.31;;;13.41;100.00
44140;BME280;29803;51.048;4.686;2023-03-13T07:22:34;99861.22;;;13.47;100.00
44140;BME280;29803;51.048;4.686;2023-03-13T07:25:05;99884.84;;;13.45;100.00
44140;BME280;29803;51.048;4.686;2023-03-13T07:27:36;99878.00;;;13.42;100.00
44140;BME280;29803;51.048;4.686;2023-03-13T07:30:08;99879.66;;;13.50;100.00
44140;BME280;29803;51.048;4.686;2023-03-13T07:32:38;99875.75;;;13.46;100.00
44140;BME280;29803;51.048;4.686;2023-03-13T07:35:09;99874.25;;;13.50;100.00
44140;BME280;29803;51.048;4.686;2023-03-13T07:37:40;99850.88;;;13.51;100.00
44140;BME280;29803;51.048;4.686;2023-03-13T07:40:10;99877.19;;;13.48;100.00
44140;BME280;29803;51.048;4.686;2023-03-13T07:42:41;99869.09;;;13.48;100.00
44140;BME280;29803;51.048;4.686;2023-03-13T07:45:12;99861.66;;;13.51;100.00
44140;BME280;29803;51.048;4.686;2023-03-13T07:47:42;99868.25;;;13.55;100.00
44140;BME280;29803;51.048;4.686;2023-03-13T07:50:13;99859.97;;;13.63;100.00
44140;BME280;29803;51.048;4.686;2023-03-13T07:52:43;99868.25;;;13.61;100.00
44140;BME280;29803;51.048;4.686;2023-03-13T07:55:14;99870.31;;;13.59;100.00
44140;BME280;29803;51.048;4.686;2023-03-13T07:57:44;99873.44;;;13.56;100.00
44140;BME280;29803;51.048;4.686;2023-03-13T08:00:15;99892.91;;;13.58;100.00
44140;BME280;29803;51.048;4.686;2023-03-13T08:02:47;99874.06;;;13.58;100.00
44140;BME280;29803;51.048;4.686;2023-03-13T08:05:18;99859.75;;;13.64;100.00
44140;BME280;29803;51.048;4.686;2023-03-13T08:07:49;99847.91;;;13.72;100.00
44140;BME280;29803;51.048;4.686;2023-03-13T08:10:19;99865.72;;;13.86;100.00
44140;BME280;29803;51.048;4.686;2023-03-13T08:12:50;99871.09;;;13.93;100.00
44140;BME280;29803;51.048;4.686;2023-03-13T08:15:20;99863.00;;;13.93;100.00
44140;BME280;29803;51.048;4.686;2023-03-13T08:17:55;99869.19;;;14.00;100.00
44140;BME280;29803;51.048;4.686;2023-03-13T08:20:26;99860.28;;;13.99;100.00
44140;BME280;29803;51.048;4.686;2023-03-13T08:22:56;99861.69;;;14.09;100.00
44140;BME280;29803;51.048;4.686;2023-03-13T08:25:27;99878.09;;;14.00;100.00
44140;BME280;29803;51.048;4.686;2023-03-13T08:27:57;99853.63;;;14.02;100.00
44140;BME280;29803;51.048;4.686;2023-03-13T08:30:28;99851.53;;;14.11;100.00
44140;BME280;29803;51.048;4.686;2023-03-13T08:32:58;99839.06;;;14.16;100.00
44140;BME280;29803;51.048;4.686;2023-03-13T08:35:29;99831.16;;;14.21;100.00
44140;BME280;29803;51.048;4.686;2023-03-13T08:37:59;99833.50;;;14.11;100.00
44140;BME280;29803;51.048;4.686;2023-03-13T08:40:30;99846.47;;;14.28;100.00
44140;BME280;29803;51.048;4.686;2023-03-13T08:43:00;99821.38;;;14.27;100.00
44140;BME280;29803;51.048;4.686;2023-03-13T08:45:31;99827.53;;;14.41;100.00
44140;BME280;29803;51.048;4.686;2023-03-13T08:48:01;99843.56;;;14.29;100.00
44140;BME280;29803;51.048;4.686;2023-03-13T08:50:32;99832.53;;;14.31;100.00
44140;BME280;29803;51.048;4.686;2023-03-13T08:53:02;99827.41;;;14.22;100.00
44140;BME280;29803;51.048;4.686;2023-03-13T08:55:32;99825.03;;;14.46;100.00
44140;BME280;29803;51.048;4.686;2023-03-13T08:58:03;99837.09;;;14.75;100.00
44140;BME280;29803;51.048;4.686;2023-03-13T09:00:33;99835.16;;;14.89;100.00
44140;BME280;29803;51.048;4.686;2023-03-13T09:03:04;99824.94;;;14.91;100.00
44140;BME280;29803;51.048;4.686;2023-03-13T09:05:36;99831.69;;;14.82;100.00
44140;BME280;29803;51.048;4.686;2023-03-13T09:08:07;99812.84;;;14.68;100.00
44140;BME280;29803;51.048;4.686;2023-03-13T09:10:37;99824.72;;;14.67;100.00
44140;BME280;29803;51.048;4.686;2023-03-13T09:13:07;99813.09;;;14.60;100.00
44140;BME280;29803;51.048;4.686;2023-03-13T09:15:38;99810.47;;;14.54;100.00
44140;BME280;29803;51.048;4.686;2023-03-13T09:18:08;99816.09;;;14.52;100.00
44140;BME280;29803;51.048;4.686;2023-03-13T09:20:42;99812.75;;;14.57;100.00
44140;BME280;29803;51.048;4.686;2023-03-13T09:23:12;99814.16;;;14.59;100.00
44140;BME280;29803;51.048;4.686;2023-03-13T09:25:43;99808.53;;;14.61;100.00
44140;BME280;29803;51.048;4.686;2023-03-13T09:28:14;99811.88;;;14.63;100.00
44140;BME280;29803;51.048;4.686;2023-03-13T09:30:44;99811.94;;;14.49;100.00
44140;BME280;29803;51.048;4.686;2023-03-13T09:33:17;99797.84;;;14.41;100.00
44140;BME280;29803;51.048;4.686;2023-03-13T09:35:48;99794.56;;;14.70;100.00
44140;BME280;29803;51.048;4.686;2023-03-13T09:38:20;99783.56;;;14.97;100.00
44140;BME280;29803;51.048;4.686;2023-03-13T09:40:53;99782.34;;;15.18;100.00
44140;BME280;29803;51.048;4.686;2023-03-13T09:49:37;99771.94;;;15.40;100.00
44140;BME280;29803;51.048;4.686;2023-03-13T09:52:14;99757.69;;;15.33;100.00
44140;BME280;29803;51.048;4.686;2023-03-13T09:58:01;99760.22;;;15.27;100.00
44140;BME280;29803;51.048;4.686;2023-03-13T10:00:37;99748.13;;;15.30;100.00
44140;BME280;29803;51.048;4.686;2023-03-13T10:05:53;99742.38;;;15.26;100.00
44140;BME280;29803;51.048;4.686;2023-03-13T10:08:26;99737.63;;;15.22;100.00
44140;BME280;29803;51.048;4.686;2023-03-13T10:14:12;99747.53;;;15.28;100.00
44140;BME280;29803;51.048;4.686;2023-03-13T10:19:55;99733.66;;;15.43;100.00
44140;BME280;29803;51.048;4.686;2023-03-13T10:22:29;99727.66;;;15.59;100.00
44140;BME280;29803;51.048;4.686;2023-03-13T10:25:07;99732.31;;;15.70;100.00
44140;BME280;29803;51.048;4.686;2023-03-13T10:27:43;99725.75;;;15.60;100.00
44140;BME280;29803;51.048;4.686;2023-03-13T10:30:23;99721.88;;;15.74;100.00
44140;BME280;29803;51.048;4.686;2023-03-13T10:33:24;99737.56;;;16.02;100.00
44140;BME280;29803;51.048;4.686;2023-03-13T10:36:09;99708.91;;;16.13;100.00
44140;BME280;29803;51.048;4.686;2023-03-13T10:38:52;99727.03;;;15.94;100.00
44140;BME280;29803;51.048;4.686;2023-03-13T10:41:26;99721.63;;;15.94;100.00
44140;BME280;29803;51.048;4.686;2023-03-13T10:46:47;99715.34;;;15.82;100.00
44140;BME280;29803;51.048;4.686;2023-03-13T10:49:22;99703.91;;;15.98;100.00
44140;BME280;29803;51.048;4.686;2023-03-13T10:51:55;99697.66;;;15.97;100.00
44140;BME280;29803;51.048;4.686;2023-03-13T10:54:28;99693.72;;;16.12;100.00
44140;BME280;29803;51.048;4.686;2023-03-13T10:57:28;99691.47;;;16.09;100.00
44140;BME280;29803;51.048;4.686;2023-03-13T10:59:59;99688.44;;;15.87;100.00
44140;BME280;29803;51.048;4.686;2023-03-13T11:02:32;99682.25;;;15.98;100.00
44140;BME280;29803;51.048;4.686;2023-03-13T11:07:54;99675.69;;;16.05;100.00
44140;BME280;29803;51.048;4.686;2023-03-13T11:10:27;99672.94;;;15.94;100.00
44140;BME280;29803;51.048;4.686;2023-03-13T11:12:59;99691.47;;;15.78;100.00
44140;BME280;29803;51.048;4.686;2023-03-13T11:15:35;99689.69;;;15.72;100.00
44140;BME280;29803;51.048;4.686;2023-03-13T11:21:04;99661.22;;;15.51;100.00
44140;BME280;29803;51.048;4.686;2023-03-13T11:23:40;99671.13;;;15.58;100.00
44140;BME280;29803;51.048;4.686;2023-03-13T11:26:33;99664.97;;;15.69;100.00
44140;BME280;29803;51.048;4.686;2023-03-13T11:29:25;99661.19;;;15.70;100.00
44140;BME280;29803;51.048;4.686;2023-03-13T11:32:04;99647.22;;;16.03;100.00
44140;BME280;29803;51.048;4.686;2023-03-13T11:34:46;99645.41;;;16.39;100.00
44140;BME280;29803;51.048;4.686;2023-03-13T11:37:21;99626.25;;;16.75;100.00
44140;BME280;29803;51.048;4.686;2023-03-13T11:45:52;99623.28;;;16.30;100.00
44140;BME280;29803;51.048;4.686;2023-03-13T11:48:33;99622.00;;;16.33;100.00
44140;BME280;29803;51.048;4.686;2023-03-13T11:51:28;99615.06;;;16.48;100.00
44140;BME280;29803;51.048;4.686;2023-03-13T11:57:04;99595.28;;;16.71;100.00
44140;BME280;29803;51.048;4.686;2023-03-13T12:02:30;99583.66;;;16.82;100.00
44140;BME280;29803;51.048;4.686;2023-03-13T12:05:07;99579.34;;;17.10;100.00
44140;BME280;29803;51.048;4.686;2023-03-13T12:07:42;99574.81;;;16.87;100.00
44140;BME280;29803;51.048;4.686;2023-03-13T12:10:20;99576.56;;;16.81;100.00
44140;BME280;29803;51.048;4.686;2023-03-13T12:13:00;99562.31;;;16.98;100.00
44140;BME280;29803;51.048;4.686;2023-03-13T12:15:37;99561.59;;;17.02;100.00
44140;BME280;29803;51.048;4.686;2023-03-13T12:21:22;99561.28;;;16.75;100.00
44140;BME280;29803;51.048;4.686;2023-03-13T12:24:00;99569.50;;;16.80;100.00
44140;BME280;29803;51.048;4.686;2023-03-13T12:29:31;99570.94;;;16.48;100.00
44140;BME280;29803;51.048;4.686;2023-03-13T12:34:58;99543.75;;;16.78;100.00
44140;BME280;29803;51.048;4.686;2023-03-13T12:45:50;99567.25;;;16.89;100.00
44140;BME280;29803;51.048;4.686;2023-03-13T12:51:42;99538.44;;;16.83;100.00
44140;BME280;29803;51.048;4.686;2023-03-13T12:54:37;99549.94;;;16.90;100.00
44140;BME280;29803;51.048;4.686;2023-03-13T13:00:13;99535.53;;;17.01;100.00
44140;BME280;29803;51.048;4.686;2023-03-13T13:02:45;99519.69;;;16.93;100.00
44140;BME280;29803;51.048;4.686;2023-03-13T13:05:18;99529.59;;;16.76;100.00
44140;BME280;29803;51.048;4.686;2023-03-13T13:08:20;99523.09;;;16.65;100.00
44140;BME280;29803;51.048;4.686;2023-03-13T13:10:51;99538.31;;;16.54;100.00
44140;BME280;29803;51.048;4.686;2023-03-13T13:13:39;99543.50;;;16.44;100.00
44140;BME280;29803;51.048;4.686;2023-03-13T13:16:17;99516.31;;;16.63;100.00
44140;BME280;29803;51.048;4.686;2023-03-13T13:18:48;99494.25;;;16.71;100.00
44140;BME280;29803;51.048;4.686;2023-03-13T13:21:22;99499.34;;;16.67;100.00
44140;BME280;29803;51.048;4.686;2023-03-13T13:23:53;99496.44;;;16.34;100.00
44140;BME280;29803;51.048;4.686;2023-03-13T13:28:58;99469.72;;;16.49;100.00
44140;BME280;29803;51.048;4.686;2023-03-13T13:37:02;99473.59;;;16.53;100.00
44140;BME280;29803;51.048;4.686;2023-03-13T13:39:53;99476.50;;;16.51;100.00
44140;BME280;29803;51.048;4.686;2023-03-13T13:42:53;99466.97;;;16.61;100.00
44140;BME280;29803;51.048;4.686;2023-03-13T13:45:40;99456.56;;;16.81;100.00
44140;BME280;29803;51.048;4.686;2023-03-13T13:48:29;99451.78;;;16.71;100.00
44140;BME280;29803;51.048;4.686;2023-03-13T13:51:19;99457.28;;;16.76;100.00
44140;BME280;29803;51.048;4.686;2023-03-13T13:53:56;99462.19;;;16.91;100.00
44140;BME280;29803;51.048;4.686;2023-03-13T13:56:33;99459.19;;;16.76;100.00
44140;BME280;29803;51.048;4.686;2023-03-13T13:59:28;99454.88;;;16.92;100.00
44140;BME280;29803;51.048;4.686;2023-03-13T14:02:21;99456.53;;;17.21;100.00
44140;BME280;29803;51.048;4.686;2023-03-13T14:08:19;99447.19;;;17.29;100.00
44140;BME280;29803;51.048;4.686;2023-03-13T14:17:02;99435.34;;;17.18;100.00
44140;BME280;29803;51.048;4.686;2023-03-13T14:20:04;99429.03;;;17.29;100.00
44140;BME280;29803;51.048;4.686;2023-03-13T14:22:58;99429.13;;;17.34;100.00
44140;BME280;29803;51.048;4.686;2023-03-13T14:28:29;99431.31;;;17.21;100.00
44140;BME280;29803;51.048;4.686;2023-03-13T14:30:59;99416.50;;;17.12;100.00
44140;BME280;29803;51.048;4.686;2023-03-13T14:33:30;99399.59;;;16.76;100.00
44140;BME280;29803;51.048;4.686;2023-03-13T14:36:01;99408.22;;;16.73;100.00
44140;BME280;29803;51.048;4.686;2023-03-13T14:38:32;99398.66;;;16.70;100.00
44140;BME280;29803;51.048;4.686;2023-03-13T14:41:02;99387.97;;;16.64;100.00
44140;BME280;29803;51.048;4.686;2023-03-13T14:43:36;99389.28;;;16.61;100.00
44140;BME280;29803;51.048;4.686;2023-03-13T14:46:15;99381.75;;;16.51;100.00